sensor_id;sensor_type;location;lat;lon;timestamp;temperature;humidity
36450;DHT22;22475;51.390;7.180;2022-12-22T00:02:09;12.00;94.20
36450;DHT22;22475;51.390;7.180;2022-12-22T00:04:56;12.00;94.20
36450;DHT22;22475;51.390;7.180;2022-12-22T00:07:40;12.00;94.20
36450;DHT22;22475;51.390;7.180;2022-12-22T00:10:24;12.00;94.20
36450;DHT22;22475;51.390;7.180;2022-12-22T00:13:10;12.00;94.20
36450;DHT22;22475;51.390;7.180;2022-12-22T00:15:54;12.00;94.20
36450;DHT22;22475;51.390;7.180;2022-12-22T00:18:38;12.00;94.20
36450;DHT22;22475;51.390;7.180;2022-12-22T00:21:26;12.00;94.20
36450;DHT22;22475;51.390;7.180;2022-12-22T00:24:11;12.00;94.20
36450;DHT22;22475;51.390;7.180;2022-12-22T00:26:55;12.00;94.20
36450;DHT22;22475;51.390;7.180;2022-12-22T00:29:40;12.00;94.30
36450;DHT22;22475;51.390;7.180;2022-12-22T00:32:31;12.00;94.30
36450;DHT22;22475;51.390;7.180;2022-12-22T00:35:15;12.00;94.30
36450;DHT22;22475;51.390;7.180;2022-12-22T00:38:00;12.00;94.30
36450;DHT22;22475;51.390;7.180;2022-12-22T00:40:45;12.00;94.30
36450;DHT22;22475;51.390;7.180;2022-12-22T00:43:29;12.00;94.30
36450;DHT22;22475;51.390;7.180;2022-12-22T00:46:15;12.00;94.30
36450;DHT22;22475;51.390;7.180;2022-12-22T00:49:01;12.00;94.40
36450;DHT22;22475;51.390;7.180;2022-12-22T00:51:45;12.00;94.40
36450;DHT22;22475;51.390;7.180;2022-12-22T00:54:31;12.00;94.40
36450;DHT22;22475;51.390;7.180;2022-12-22T00:57:16;12.00;94.40
36450;DHT22;22475;51.390;7.180;2022-12-22T01:00:03;12.00;94.40
36450;DHT22;22475;51.390;7.180;2022-12-22T01:02:47;12.00;94.40
36450;DHT22;22475;51.390;7.180;2022-12-22T01:05:32;12.00;94.40
36450;DHT22;22475;51.390;7.180;2022-12-22T01:08:16;12.00;94.50
36450;DHT22;22475;51.390;7.180;2022-12-22T01:11:01;12.00;94.50
36450;DHT22;22475;51.390;7.180;2022-12-22T01:13:46;12.00;94.50
36450;DHT22;22475;51.390;7.180;2022-12-22T01:16:30;12.00;94.50
36450;DHT22;22475;51.390;7.180;2022-12-22T01:19:14;12.00;94.50
36450;DHT22;22475;51.390;7.180;2022-12-22T01:21:58;12.00;94.50
36450;DHT22;22475;51.390;7.180;2022-12-22T01:24:43;12.00;94.50
36450;DHT22;22475;51.390;7.180;2022-12-22T01:27:29;12.00;94.50
36450;DHT22;22475;51.390;7.180;2022-12-22T01:30:14;12.00;94.50
36450;DHT22;22475;51.390;7.180;2022-12-22T01:32:58;12.00;94.50
36450;DHT22;22475;51.390;7.180;2022-12-22T01:35:42;12.00;94.60
36450;DHT22;22475;51.390;7.180;2022-12-22T01:38:26;12.00;94.60
36450;DHT22;22475;51.390;7.180;2022-12-22T01:41:15;12.00;94.60
36450;DHT22;22475;51.390;7.180;2022-12-22T01:44:10;12.00;94.60
36450;DHT22;22475;51.390;7.180;2022-12-22T01:47:33;12.00;94.60
36450;DHT22;22475;51.390;7.180;2022-12-22T01:50:23;12.00;94.60
36450;DHT22;22475;51.390;7.180;2022-12-22T01:53:13;12.00;94.60
36450;DHT22;22475;51.390;7.180;2022-12-22T01:55:58;12.00;94.60
36450;DHT22;22475;51.390;7.180;2022-12-22T01:58:46;12.00;94.60
36450;DHT22;22475;51.390;7.180;2022-12-22T02:01:34;12.00;94.60
36450;DHT22;22475;51.390;7.180;2022-12-22T02:04:22;12.00;94.60
36450;DHT22;22475;51.390;7.180;2022-12-22T02:07:15;12.00;94.60
36450;DHT22;22475;51.390;7.180;2022-12-22T02:10:19;12.00;94.70
36450;DHT22;22475;51.390;7.180;2022-12-22T02:13:13;12.00;94.70
36450;DHT22;22475;51.390;7.180;2022-12-22T02:16:10;12.00;94.70
36450;DHT22;22475;51.390;7.180;2022-12-22T02:19:05;12.00;94.70
36450;DHT22;22475;51.390;7.180;2022-12-22T02:21:57;12.00;94.70
36450;DHT22;22475;51.390;7.180;2022-12-22T02:24:49;12.00;94.70
36450;DHT22;22475;51.390;7.180;2022-12-22T02:27:38;12.10;94.80
36450;DHT22;22475;51.390;7.180;2022-12-22T02:30:25;12.00;94.70
36450;DHT22;22475;51.390;7.180;2022-12-22T02:33:11;12.00;94.70
36450;DHT22;22475;51.390;7.180;2022-12-22T02:36:00;12.10;94.80
36450;DHT22;22475;51.390;7.180;2022-12-22T02:38:54;12.10;94.80
36450;DHT22;22475;51.390;7.180;2022-12-22T02:41:47;12.10;94.80
36450;DHT22;22475;51.390;7.180;2022-12-22T02:44:48;12.00;94.80
36450;DHT22;22475;51.390;7.180;2022-12-22T02:47:43;12.10;94.80
36450;DHT22;22475;51.390;7.180;2022-12-22T02:50:36;12.10;94.80
36450;DHT22;22475;51.390;7.180;2022-12-22T02:53:23;12.10;94.90
36450;DHT22;22475;51.390;7.180;2022-12-22T02:56:09;12.00;94.80
36450;DHT22;22475;51.390;7.180;2022-12-22T02:58:55;12.10;94.90
36450;DHT22;22475;51.390;7.180;2022-12-22T03:01:42;12.10;94.90
36450;DHT22;22475;51.390;7.180;2022-12-22T03:04:27;12.10;94.90
36450;DHT22;22475;51.390;7.180;2022-12-22T03:07:11;12.10;94.90
36450;DHT22;22475;51.390;7.180;2022-12-22T03:09:55;12.10;94.90
36450;DHT22;22475;51.390;7.180;2022-12-22T03:12:39;12.10;94.90
36450;DHT22;22475;51.390;7.180;2022-12-22T03:15:24;12.10;94.90
36450;DHT22;22475;51.390;7.180;2022-12-22T03:18:10;12.10;94.90
36450;DHT22;22475;51.390;7.180;2022-12-22T03:20:55;12.10;94.90
36450;DHT22;22475;51.390;7.180;2022-12-22T03:23:40;12.10;94.90
36450;DHT22;22475;51.390;7.180;2022-12-22T03:26:24;12.10;94.90
36450;DHT22;22475;51.390;7.180;2022-12-22T03:28:51;12.10;94.90
36450;DHT22;22475;51.390;7.180;2022-12-22T03:31:18;12.10;94.90
36450;DHT22;22475;51.390;7.180;2022-12-22T03:33:46;12.10;95.00
36450;DHT22;22475;51.390;7.180;2022-12-22T03:36:13;12.10;95.00
36450;DHT22;22475;51.390;7.180;2022-12-22T03:38:40;12.10;95.00
36450;DHT22;22475;51.390;7.180;2022-12-22T03:41:06;12.10;95.00
36450;DHT22;22475;51.390;7.180;2022-12-22T03:43:53;12.10;95.00
36450;DHT22;22475;51.390;7.180;2022-12-22T03:46:37;12.10;95.00
36450;DHT22;22475;51.390;7.180;2022-12-22T03:49:05;12.10;95.00
36450;DHT22;22475;51.390;7.180;2022-12-22T03:51:37;12.10;95.00
36450;DHT22;22475;51.390;7.180;2022-12-22T03:54:05;12.10;95.00
36450;DHT22;22475;51.390;7.180;2022-12-22T03:56:32;12.10;95.00
36450;DHT22;22475;51.390;7.180;2022-12-22T03:58:59;12.10;95.00
36450;DHT22;22475;51.390;7.180;2022-12-22T04:01:25;12.10;95.00
36450;DHT22;22475;51.390;7.180;2022-12-22T04:03:52;12.10;94.90
36450;DHT22;22475;51.390;7.180;2022-12-22T04:06:20;12.10;95.00
36450;DHT22;22475;51.390;7.180;2022-12-22T04:08:47;12.10;95.00
36450;DHT22;22475;51.390;7.180;2022-12-22T04:11:15;12.10;95.00
36450;DHT22;22475;51.390;7.180;2022-12-22T04:14:14;12.10;95.00
36450;DHT22;22475;51.390;7.180;2022-12-22T04:16:41;12.10;94.90
36450;DHT22;22475;51.390;7.180;2022-12-22T04:19:08;12.10;94.90
36450;DHT22;22475;51.390;7.180;2022-12-22T04:21:36;12.10;95.00
36450;DHT22;22475;51.390;7.180;2022-12-22T04:24:04;12.20;95.00
36450;DHT22;22475;51.390;7.180;2022-12-22T04:26:31;12.10;95.00
36450;DHT22;22475;51.390;7.180;2022-12-22T04:28:58;12.20;95.00
36450;DHT22;22475;51.390;7.180;2022-12-22T04:31:24;12.20;95.00
36450;DHT22;22475;51.390;7.180;2022-12-22T04:33:51;12.20;95.00
36450;DHT22;22475;51.390;7.180;2022-12-22T04:36:19;12.20;95.00
36450;DHT22;22475;51.390;7.180;2022-12-22T04:38:47;12.20;95.40
36450;DHT22;22475;51.390;7.180;2022-12-22T04:41:14;12.10;95.00
36450;DHT22;22475;51.390;7.180;2022-12-22T04:43:40;12.10;95.00
36450;DHT22;22475;51.390;7.180;2022-12-22T04:46:07;12.10;95.00
36450;DHT22;22475;51.390;7.180;2022-12-22T04:48:34;12.10;95.00
36450;DHT22;22475;51.390;7.180;2022-12-22T04:51:01;12.20;95.10
36450;DHT22;22475;51.390;7.180;2022-12-22T04:53:29;12.20;95.10
36450;DHT22;22475;51.390;7.180;2022-12-22T04:55:58;12.20;95.10
36450;DHT22;22475;51.390;7.180;2022-12-22T04:58:26;12.20;95.10
36450;DHT22;22475;51.390;7.180;2022-12-22T05:00:53;12.20;95.10
36450;DHT22;22475;51.390;7.180;2022-12-22T05:03:20;12.20;95.10
36450;DHT22;22475;51.390;7.180;2022-12-22T05:05:47;12.20;95.10
36450;DHT22;22475;51.390;7.180;2022-12-22T05:08:14;12.10;95.10
36450;DHT22;22475;51.390;7.180;2022-12-22T05:10:41;12.10;95.10
36450;DHT22;22475;51.390;7.180;2022-12-22T05:13:09;12.20;95.10
36450;DHT22;22475;51.390;7.180;2022-12-22T05:15:36;12.20;95.10
36450;DHT22;22475;51.390;7.180;2022-12-22T05:18:03;12.20;95.10
36450;DHT22;22475;51.390;7.180;2022-12-22T05:20:30;12.10;95.10
36450;DHT22;22475;51.390;7.180;2022-12-22T05:22:57;12.20;95.10
36450;DHT22;22475;51.390;7.180;2022-12-22T05:25:23;12.20;95.10
36450;DHT22;22475;51.390;7.180;2022-12-22T05:27:50;12.20;95.10
36450;DHT22;22475;51.390;7.180;2022-12-22T05:30:19;12.10;95.10
36450;DHT22;22475;51.390;7.180;2022-12-22T05:32:46;12.10;95.10
36450;DHT22;22475;51.390;7.180;2022-12-22T05:35:14;12.10;95.10
36450;DHT22;22475;51.390;7.180;2022-12-22T05:37:41;12.20;95.10
36450;DHT22;22475;51.390;7.180;2022-12-22T05:40:09;12.20;95.10
36450;DHT22;22475;51.390;7.180;2022-12-22T05:42:36;12.20;95.20
36450;DHT22;22475;51.390;7.180;2022-12-22T05:45:05;12.20;95.10
36450;DHT22;22475;51.390;7.180;2022-12-22T05:47:33;12.20;95.10
36450;DHT22;22475;51.390;7.180;2022-12-22T05:50:00;12.20;95.20
36450;DHT22;22475;51.390;7.180;2022-12-22T05:52:28;12.20;95.10
36450;DHT22;22475;51.390;7.180;2022-12-22T05:54:55;12.20;95.10
36450;DHT22;22475;51.390;7.180;2022-12-22T05:57:22;12.20;95.20
36450;DHT22;22475;51.390;7.180;2022-12-22T05:59:49;12.20;95.20
36450;DHT22;22475;51.390;7.180;2022-12-22T06:02:15;12.20;95.20
36450;DHT22;22475;51.390;7.180;2022-12-22T06:04:43;12.20;95.20
36450;DHT22;22475;51.390;7.180;2022-12-22T06:07:10;12.20;95.20
36450;DHT22;22475;51.390;7.180;2022-12-22T06:09:37;12.20;95.20
36450;DHT22;22475;51.390;7.180;2022-12-22T06:12:04;12.20;95.20
36450;DHT22;22475;51.390;7.180;2022-12-22T06:14:32;12.20;95.20
36450;DHT22;22475;51.390;7.180;2022-12-22T06:16:59;12.20;95.20
36450;DHT22;22475;51.390;7.180;2022-12-22T06:19:26;12.20;95.20
36450;DHT22;22475;51.390;7.180;2022-12-22T06:21:54;12.20;95.20
36450;DHT22;22475;51.390;7.180;2022-12-22T06:24:20;12.20;95.20
36450;DHT22;22475;51.390;7.180;2022-12-22T06:26:47;12.10;95.20
36450;DHT22;22475;51.390;7.180;2022-12-22T06:29:14;12.20;95.30
36450;DHT22;22475;51.390;7.180;2022-12-22T06:31:41;12.10;95.20
36450;DHT22;22475;51.390;7.180;2022-12-22T06:34:08;12.20;95.30
36450;DHT22;22475;51.390;7.180;2022-12-22T06:36:35;12.20;95.30
36450;DHT22;22475;51.390;7.180;2022-12-22T06:39:04;12.20;95.30
36450;DHT22;22475;51.390;7.180;2022-12-22T06:41:31;12.20;95.30
36450;DHT22;22475;51.390;7.180;2022-12-22T06:44:15;12.20;95.30
36450;DHT22;22475;51.390;7.180;2022-12-22T06:46:42;12.20;95.30
36450;DHT22;22475;51.390;7.180;2022-12-22T06:49:08;12.20;95.30
36450;DHT22;22475;51.390;7.180;2022-12-22T06:51:35;12.20;95.30
36450;DHT22;22475;51.390;7.180;2022-12-22T06:54:03;12.20;95.40
36450;DHT22;22475;51.390;7.180;2022-12-22T06:56:30;12.20;95.30
36450;DHT22;22475;51.390;7.180;2022-12-22T06:58:57;12.20;95.40
36450;DHT22;22475;51.390;7.180;2022-12-22T07:01:23;12.20;95.40
36450;DHT22;22475;51.390;7.180;2022-12-22T07:03:50;12.20;95.40
36450;DHT22;22475;51.390;7.180;2022-12-22T07:06:17;12.20;95.40
36450;DHT22;22475;51.390;7.180;2022-12-22T07:08:44;12.20;95.40
36450;DHT22;22475;51.390;7.180;2022-12-22T07:11:13;12.20;95.40
36450;DHT22;22475;51.390;7.180;2022-12-22T07:13:40;12.20;95.40
36450;DHT22;22475;51.390;7.180;2022-12-22T07:16:08;12.20;95.40
36450;DHT22;22475;51.390;7.180;2022-12-22T07:18:37;12.20;95.40
36450;DHT22;22475;51.390;7.180;2022-12-22T07:21:06;12.20;95.40
36450;DHT22;22475;51.390;7.180;2022-12-22T07:23:33;12.20;95.40
36450;DHT22;22475;51.390;7.180;2022-12-22T07:26:01;12.20;95.40
36450;DHT22;22475;51.390;7.180;2022-12-22T07:28:31;12.20;95.40
36450;DHT22;22475;51.390;7.180;2022-12-22T07:30:58;12.20;95.40
36450;DHT22;22475;51.390;7.180;2022-12-22T07:33:25;12.20;95.40
36450;DHT22;22475;51.390;7.180;2022-12-22T07:36:00;12.20;95.30
36450;DHT22;22475;51.390;7.180;2022-12-22T07:38:28;12.20;95.40
36450;DHT22;22475;51.390;7.180;2022-12-22T07:40:56;12.20;95.40
36450;DHT22;22475;51.390;7.180;2022-12-22T07:43:24;12.20;95.40
36450;DHT22;22475;51.390;7.180;2022-12-22T07:45:51;12.20;95.40
36450;DHT22;22475;51.390;7.180;2022-12-22T07:48:18;12.20;95.40
36450;DHT22;22475;51.390;7.180;2022-12-22T07:51:04;12.20;95.40
36450;DHT22;22475;51.390;7.180;2022-12-22T07:53:31;12.20;95.40
36450;DHT22;22475;51.390;7.180;2022-12-22T07:56:01;12.20;95.40
36450;DHT22;22475;51.390;7.180;2022-12-22T07:58:28;12.20;95.40
36450;DHT22;22475;51.390;7.180;2022-12-22T08:00:57;12.20;95.40
36450;DHT22;22475;51.390;7.180;2022-12-22T08:03:24;12.20;95.40
36450;DHT22;22475;51.390;7.180;2022-12-22T08:05:51;12.20;95.50
36450;DHT22;22475;51.390;7.180;2022-12-22T08:08:18;12.20;95.50
36450;DHT22;22475;51.390;7.180;2022-12-22T08:10:45;12.20;95.50
36450;DHT22;22475;51.390;7.180;2022-12-22T08:13:11;12.20;95.50
36450;DHT22;22475;51.390;7.180;2022-12-22T08:15:38;12.20;95.50
36450;DHT22;22475;51.390;7.180;2022-12-22T08:18:06;12.20;95.50
36450;DHT22;22475;51.390;7.180;2022-12-22T08:20:33;12.20;95.50
36450;DHT22;22475;51.390;7.180;2022-12-22T08:23:00;12.20;95.50
36450;DHT22;22475;51.390;7.180;2022-12-22T08:25:27;12.20;95.50
36450;DHT22;22475;51.390;7.180;2022-12-22T08:27:55;12.20;95.60
36450;DHT22;22475;51.390;7.180;2022-12-22T08:30:22;12.20;95.60
36450;DHT22;22475;51.390;7.180;2022-12-22T08:32:50;12.20;95.60
36450;DHT22;22475;51.390;7.180;2022-12-22T08:35:18;12.20;95.60
36450;DHT22;22475;51.390;7.180;2022-12-22T08:37:46;12.20;95.60
36450;DHT22;22475;51.390;7.180;2022-12-22T08:40:16;12.20;95.60
36450;DHT22;22475;51.390;7.180;2022-12-22T08:42:45;12.20;95.60
36450;DHT22;22475;51.390;7.180;2022-12-22T08:45:12;12.20;95.60
36450;DHT22;22475;51.390;7.180;2022-12-22T08:47:39;12.30;95.70
36450;DHT22;22475;51.390;7.180;2022-12-22T08:50:06;12.20;95.60
36450;DHT22;22475;51.390;7.180;2022-12-22T08:52:35;12.20;95.60
36450;DHT22;22475;51.390;7.180;2022-12-22T08:55:01;12.20;96.00
36450;DHT22;22475;51.390;7.180;2022-12-22T08:57:28;12.20;95.70
36450;DHT22;22475;51.390;7.180;2022-12-22T08:59:55;12.20;95.70
36450;DHT22;22475;51.390;7.180;2022-12-22T09:02:22;12.30;95.70
36450;DHT22;22475;51.390;7.180;2022-12-22T09:04:48;12.20;95.70
36450;DHT22;22475;51.390;7.180;2022-12-22T09:07:15;12.20;95.70
36450;DHT22;22475;51.390;7.180;2022-12-22T09:09:44;12.20;95.60
36450;DHT22;22475;51.390;7.180;2022-12-22T09:12:11;12.20;95.60
36450;DHT22;22475;51.390;7.180;2022-12-22T09:14:37;12.30;95.70
36450;DHT22;22475;51.390;7.180;2022-12-22T09:17:04;12.20;95.60
36450;DHT22;22475;51.390;7.180;2022-12-22T09:19:31;12.20;95.60
36450;DHT22;22475;51.390;7.180;2022-12-22T09:21:57;12.20;95.60
36450;DHT22;22475;51.390;7.180;2022-12-22T09:24:24;12.30;95.70
36450;DHT22;22475;51.390;7.180;2022-12-22T09:26:52;12.20;95.60
36450;DHT22;22475;51.390;7.180;2022-12-22T09:29:19;12.30;95.70
36450;DHT22;22475;51.390;7.180;2022-12-22T09:31:46;12.30;95.70
36450;DHT22;22475;51.390;7.180;2022-12-22T09:34:13;12.20;95.70
36450;DHT22;22475;51.390;7.180;2022-12-22T09:36:40;12.20;95.70
36450;DHT22;22475;51.390;7.180;2022-12-22T09:39:08;12.30;95.70
36450;DHT22;22475;51.390;7.180;2022-12-22T09:41:42;12.20;96.00
36450;DHT22;22475;51.390;7.180;2022-12-22T09:44:14;12.20;95.70
36450;DHT22;22475;51.390;7.180;2022-12-22T09:46:42;12.20;95.60
36450;DHT22;22475;51.390;7.180;2022-12-22T09:49:12;12.20;95.60
36450;DHT22;22475;51.390;7.180;2022-12-22T09:51:40;12.20;95.60
36450;DHT22;22475;51.390;7.180;2022-12-22T09:54:10;12.20;95.60
36450;DHT22;22475;51.390;7.180;2022-12-22T09:56:38;12.30;95.50
36450;DHT22;22475;51.390;7.180;2022-12-22T09:59:09;12.20;95.50
36450;DHT22;22475;51.390;7.180;2022-12-22T10:02:02;12.20;95.60
36450;DHT22;22475;51.390;7.180;2022-12-22T10:04:55;12.20;95.60
36450;DHT22;22475;51.390;7.180;2022-12-22T10:07:27;12.20;95.60
36450;DHT22;22475;51.390;7.180;2022-12-22T10:09:56;12.20;95.60
36450;DHT22;22475;51.390;7.180;2022-12-22T10:12:24;12.20;95.60
36450;DHT22;22475;51.390;7.180;2022-12-22T10:14:52;12.30;95.60
36450;DHT22;22475;51.390;7.180;2022-12-22T10:17:23;12.30;95.70
36450;DHT22;22475;51.390;7.180;2022-12-22T10:19:52;12.30;95.70
36450;DHT22;22475;51.390;7.180;2022-12-22T10:22:26;12.30;95.70
36450;DHT22;22475;51.390;7.180;2022-12-22T10:24:53;12.30;95.60
36450;DHT22;22475;51.390;7.180;2022-12-22T10:27:21;12.30;95.60
36450;DHT22;22475;51.390;7.180;2022-12-22T10:29:49;12.30;95.60
36450;DHT22;22475;51.390;7.180;2022-12-22T10:32:18;12.30;95.60
36450;DHT22;22475;51.390;7.180;2022-12-22T10:35:00;12.30;95.60
36450;DHT22;22475;51.390;7.180;2022-12-22T10:37:32;12.30;95.60
36450;DHT22;22475;51.390;7.180;2022-12-22T10:40:12;12.30;95.60
36450;DHT22;22475;51.390;7.180;2022-12-22T10:42:43;12.20;95.50
36450;DHT22;22475;51.390;7.180;2022-12-22T10:45:16;12.30;95.50
36450;DHT22;22475;51.390;7.180;2022-12-22T10:47:46;12.30;95.50
36450;DHT22;22475;51.390;7.180;2022-12-22T10:50:15;12.30;95.50
36450;DHT22;22475;51.390;7.180;2022-12-22T10:52:49;12.30;95.50
36450;DHT22;22475;51.390;7.180;2022-12-22T10:55:18;12.30;95.50
36450;DHT22;22475;51.390;7.180;2022-12-22T10:57:45;12.30;95.50
36450;DHT22;22475;51.390;7.180;2022-12-22T11:00:24;12.30;95.40
36450;DHT22;22475;51.390;7.180;2022-12-22T11:02:52;12.30;95.40
36450;DHT22;22475;51.390;7.180;2022-12-22T11:05:21;12.30;95.40
36450;DHT22;22475;51.390;7.180;2022-12-22T11:07:47;12.30;95.40
36450;DHT22;22475;51.390;7.180;2022-12-22T11:10:23;12.20;95.40
36450;DHT22;22475;51.390;7.180;2022-12-22T11:13:35;12.30;95.40
36450;DHT22;22475;51.390;7.180;2022-12-22T11:16:12;12.30;95.30
36450;DHT22;22475;51.390;7.180;2022-12-22T11:18:53;12.30;95.30
36450;DHT22;22475;51.390;7.180;2022-12-22T11:21:31;12.20;95.20
36450;DHT22;22475;51.390;7.180;2022-12-22T11:24:11;12.30;95.20
36450;DHT22;22475;51.390;7.180;2022-12-22T11:26:50;12.30;95.20
36450;DHT22;22475;51.390;7.180;2022-12-22T11:29:34;12.20;95.20
36450;DHT22;22475;51.390;7.180;2022-12-22T11:32:17;12.30;95.20
36450;DHT22;22475;51.390;7.180;2022-12-22T11:34:53;12.30;95.20
36450;DHT22;22475;51.390;7.180;2022-12-22T11:37:33;12.30;95.10
36450;DHT22;22475;51.390;7.180;2022-12-22T11:40:07;12.20;95.10
36450;DHT22;22475;51.390;7.180;2022-12-22T11:42:49;12.20;95.00
36450;DHT22;22475;51.390;7.180;2022-12-22T11:45:39;12.30;95.00
36450;DHT22;22475;51.390;7.180;2022-12-22T11:48:26;12.30;95.00
36450;DHT22;22475;51.390;7.180;2022-12-22T11:50:55;12.20;94.90
36450;DHT22;22475;51.390;7.180;2022-12-22T11:53:55;12.30;94.90
36450;DHT22;22475;51.390;7.180;2022-12-22T11:56:29;12.30;94.90
36450;DHT22;22475;51.390;7.180;2022-12-22T11:59:11;12.20;94.90
36450;DHT22;22475;51.390;7.180;2022-12-22T12:01:53;12.20;94.80
36450;DHT22;22475;51.390;7.180;2022-12-22T12:04:53;12.30;94.90
36450;DHT22;22475;51.390;7.180;2022-12-22T12:07:26;12.30;94.80
36450;DHT22;22475;51.390;7.180;2022-12-22T12:10:03;12.30;94.80
36450;DHT22;22475;51.390;7.180;2022-12-22T12:12:39;12.30;94.70
36450;DHT22;22475;51.390;7.180;2022-12-22T12:15:21;12.30;94.70
36450;DHT22;22475;51.390;7.180;2022-12-22T12:18:00;12.30;94.70
36450;DHT22;22475;51.390;7.180;2022-12-22T12:20:48;12.30;94.70
36450;DHT22;22475;51.390;7.180;2022-12-22T12:23:35;12.20;94.60
36450;DHT22;22475;51.390;7.180;2022-12-22T12:26:13;12.30;94.60
36450;DHT22;22475;51.390;7.180;2022-12-22T12:28:49;12.30;94.60
36450;DHT22;22475;51.390;7.180;2022-12-22T12:31:25;12.30;94.60
36450;DHT22;22475;51.390;7.180;2022-12-22T12:33:54;12.30;94.50
36450;DHT22;22475;51.390;7.180;2022-12-22T12:36:27;12.30;94.50
36450;DHT22;22475;51.390;7.180;2022-12-22T12:39:02;12.30;94.40
36450;DHT22;22475;51.390;7.180;2022-12-22T12:41:35;12.30;94.40
36450;DHT22;22475;51.390;7.180;2022-12-22T12:44:10;12.30;94.30
36450;DHT22;22475;51.390;7.180;2022-12-22T12:49:57;12.30;94.30
36450;DHT22;22475;51.390;7.180;2022-12-22T12:55:58;12.30;94.20
36450;DHT22;22475;51.390;7.180;2022-12-22T12:58:55;12.30;94.20
36450;DHT22;22475;51.390;7.180;2022-12-22T13:01:56;12.30;94.10
36450;DHT22;22475;51.390;7.180;2022-12-22T13:08:06;12.30;94.10
36450;DHT22;22475;51.390;7.180;2022-12-22T13:10:35;12.30;94.00
36450;DHT22;22475;51.390;7.180;2022-12-22T13:13:03;12.30;94.00
36450;DHT22;22475;51.390;7.180;2022-12-22T13:15:32;12.30;94.00
36450;DHT22;22475;51.390;7.180;2022-12-22T13:18:01;12.30;94.00
36450;DHT22;22475;51.390;7.180;2022-12-22T13:20:30;12.30;94.40
36450;DHT22;22475;51.390;7.180;2022-12-22T13:22:59;12.30;94.00
36450;DHT22;22475;51.390;7.180;2022-12-22T13:25:40;12.30;94.00
36450;DHT22;22475;51.390;7.180;2022-12-22T13:28:13;12.30;94.00
36450;DHT22;22475;51.390;7.180;2022-12-22T13:30:44;12.30;93.90
36450;DHT22;22475;51.390;7.180;2022-12-22T13:33:15;12.30;93.90
36450;DHT22;22475;51.390;7.180;2022-12-22T13:35:43;12.30;93.90
36450;DHT22;22475;51.390;7.180;2022-12-22T13:38:26;12.30;93.90
36450;DHT22;22475;51.390;7.180;2022-12-22T13:40:53;12.30;93.90
36450;DHT22;22475;51.390;7.180;2022-12-22T13:43:20;12.30;93.90
36450;DHT22;22475;51.390;7.180;2022-12-22T13:45:50;12.30;93.90
36450;DHT22;22475;51.390;7.180;2022-12-22T13:48:19;12.30;93.90
36450;DHT22;22475;51.390;7.180;2022-12-22T13:50:49;12.30;93.80
36450;DHT22;22475;51.390;7.180;2022-12-22T13:53:24;12.30;93.80
36450;DHT22;22475;51.390;7.180;2022-12-22T13:55:51;12.30;93.80
36450;DHT22;22475;51.390;7.180;2022-12-22T13:58:24;12.30;93.70
36450;DHT22;22475;51.390;7.180;2022-12-22T14:01:02;12.30;93.70
36450;DHT22;22475;51.390;7.180;2022-12-22T14:03:29;12.30;93.70
36450;DHT22;22475;51.390;7.180;2022-12-22T14:05:56;12.30;93.70
36450;DHT22;22475;51.390;7.180;2022-12-22T14:08:22;12.30;93.70
36450;DHT22;22475;51.390;7.180;2022-12-22T14:10:51;12.30;93.60
36450;DHT22;22475;51.390;7.180;2022-12-22T14:13:21;12.30;93.60
36450;DHT22;22475;51.390;7.180;2022-12-22T14:15:58;12.30;93.60
36450;DHT22;22475;51.390;7.180;2022-12-22T14:18:26;12.30;93.60
36450;DHT22;22475;51.390;7.180;2022-12-22T14:20:53;12.30;93.60
36450;DHT22;22475;51.390;7.180;2022-12-22T14:23:23;12.30;93.60
36450;DHT22;22475;51.390;7.180;2022-12-22T14:25:53;12.30;93.60
36450;DHT22;22475;51.390;7.180;2022-12-22T14:28:22;12.30;93.50
36450;DHT22;22475;51.390;7.180;2022-12-22T14:30:52;12.30;93.50
36450;DHT22;22475;51.390;7.180;2022-12-22T14:33:31;12.30;93.50
36450;DHT22;22475;51.390;7.180;2022-12-22T14:36:10;12.30;93.50
36450;DHT22;22475;51.390;7.180;2022-12-22T14:38:39;12.30;93.50
36450;DHT22;22475;51.390;7.180;2022-12-22T14:41:10;12.30;93.50
36450;DHT22;22475;51.390;7.180;2022-12-22T14:43:58;12.30;93.50
36450;DHT22;22475;51.390;7.180;2022-12-22T14:46:25;12.30;93.50
36450;DHT22;22475;51.390;7.180;2022-12-22T14:48:53;12.30;93.40
36450;DHT22;22475;51.390;7.180;2022-12-22T14:51:20;12.20;93.40
36450;DHT22;22475;51.390;7.180;2022-12-22T14:53:49;12.30;93.50
36450;DHT22;22475;51.390;7.180;2022-12-22T14:56:17;12.30;93.40
36450;DHT22;22475;51.390;7.180;2022-12-22T14:58:45;12.30;93.40
36450;DHT22;22475;51.390;7.180;2022-12-22T15:01:19;12.30;93.40
36450;DHT22;22475;51.390;7.180;2022-12-22T15:03:59;12.20;93.40
36450;DHT22;22475;51.390;7.180;2022-12-22T15:06:33;12.20;93.40
36450;DHT22;22475;51.390;7.180;2022-12-22T15:09:23;12.30;93.40
36450;DHT22;22475;51.390;7.180;2022-12-22T15:11:53;12.30;93.40
36450;DHT22;22475;51.390;7.180;2022-12-22T15:14:22;12.30;93.40
36450;DHT22;22475;51.390;7.180;2022-12-22T15:16:53;12.30;93.40
36450;DHT22;22475;51.390;7.180;2022-12-22T15:19:22;12.30;93.40
36450;DHT22;22475;51.390;7.180;2022-12-22T15:21:49;12.30;93.40
36450;DHT22;22475;51.390;7.180;2022-12-22T15:24:17;12.30;93.40
36450;DHT22;22475;51.390;7.180;2022-12-22T15:26:44;12.30;93.40
36450;DHT22;22475;51.390;7.180;2022-12-22T15:29:11;12.20;93.30
36450;DHT22;22475;51.390;7.180;2022-12-22T15:31:39;12.30;93.30
36450;DHT22;22475;51.390;7.180;2022-12-22T15:34:11;12.20;93.30
36450;DHT22;22475;51.390;7.180;2022-12-22T15:36:41;12.20;93.30
36450;DHT22;22475;51.390;7.180;2022-12-22T15:39:14;12.20;93.30
36450;DHT22;22475;51.390;7.180;2022-12-22T15:41:41;12.30;93.30
36450;DHT22;22475;51.390;7.180;2022-12-22T15:44:08;12.20;93.30
36450;DHT22;22475;51.390;7.180;2022-12-22T15:46:36;12.20;93.30
36450;DHT22;22475;51.390;7.180;2022-12-22T15:49:04;12.20;93.40
36450;DHT22;22475;51.390;7.180;2022-12-22T15:51:32;12.20;93.40
36450;DHT22;22475;51.390;7.180;2022-12-22T15:54:00;12.20;93.40
36450;DHT22;22475;51.390;7.180;2022-12-22T15:56:29;12.20;93.40
36450;DHT22;22475;51.390;7.180;2022-12-22T15:58:58;12.20;93.40
36450;DHT22;22475;51.390;7.180;2022-12-22T16:01:26;12.20;93.40
36450;DHT22;22475;51.390;7.180;2022-12-22T16:03:53;12.20;93.40
36450;DHT22;22475;51.390;7.180;2022-12-22T16:06:19;12.20;93.40
36450;DHT22;22475;51.390;7.180;2022-12-22T16:08:48;12.20;93.40
36450;DHT22;22475;51.390;7.180;2022-12-22T16:11:18;12.20;93.40
36450;DHT22;22475;51.390;7.180;2022-12-22T16:13:46;12.20;93.40
36450;DHT22;22475;51.390;7.180;2022-12-22T16:16:13;12.20;93.40
36450;DHT22;22475;51.390;7.180;2022-12-22T16:18:39;12.20;93.40
36450;DHT22;22475;51.390;7.180;2022-12-22T16:21:13;12.20;93.40
36450;DHT22;22475;51.390;7.180;2022-12-22T16:23:42;12.20;93.40